createdAt,value
2019-02-16T00:00:05.730Z,58.67
2019-02-16T00:02:34.342Z,58.57
2019-02-16T00:05:03.113Z,58.37
2019-02-16T00:07:31.761Z,58.44
2019-02-16T00:10:00.352Z,58.19
2019-02-16T00:12:28.990Z,58.04
2019-02-16T00:14:57.622Z,58.00
2019-02-16T00:17:26.226Z,57.96
2019-02-16T00:19:54.971Z,57.85
2019-02-16T00:22:23.776Z,57.79
2019-02-16T00:24:52.343Z,57.58
2019-02-16T00:27:20.953Z,57.54
2019-02-16T00:29:49.839Z,57.43
2019-02-16T00:32:18.569Z,57.41
2019-02-16T00:34:47.135Z,57.42
2019-02-16T00:37:15.850Z,57.57
2019-02-16T00:39:44.355Z,57.67
2019-02-16T00:42:13.130Z,57.48
2019-02-16T00:44:41.857Z,57.48
2019-02-16T00:47:10.453Z,58.09
2019-02-16T00:49:39.067Z,58.31
2019-02-16T00:52:07.743Z,58.67
2019-02-16T00:54:36.358Z,58.94
2019-02-16T00:57:05.052Z,59.03
2019-02-16T00:59:33.688Z,59.21
2019-02-16T01:02:02.443Z,59.45
2019-02-16T01:04:31.020Z,59.76
2019-02-16T01:06:59.557Z,60.05
2019-02-16T01:09:28.122Z,60.09
2019-02-16T01:11:56.975Z,60.05
2019-02-16T01:14:25.509Z,60.11
2019-02-16T01:16:54.112Z,60.03
2019-02-16T01:19:22.794Z,59.79
2019-02-16T01:21:51.409Z,59.54
2019-02-16T01:24:20.015Z,59.25
2019-02-16T01:26:48.814Z,58.94
2019-02-16T01:29:17.530Z,58.78
2019-02-16T01:31:46.083Z,58.45
2019-02-16T01:34:14.722Z,58.00
2019-02-16T01:36:43.508Z,57.49
2019-02-16T01:39:12.172Z,57.17
2019-02-16T01:41:40.782Z,56.87
2019-02-16T01:44:09.439Z,56.66
2019-02-16T01:46:38.235Z,56.62
2019-02-16T01:49:07.271Z,56.48
2019-02-16T01:51:36.130Z,56.62
2019-02-16T01:54:04.974Z,56.71
2019-02-16T01:56:33.610Z,56.81
2019-02-16T01:59:02.219Z,57.00
2019-02-16T02:01:30.822Z,57.10
2019-02-16T02:03:59.379Z,57.00
2019-02-16T02:06:28.028Z,57.03
2019-02-16T02:08:56.672Z,56.88
2019-02-16T02:11:25.290Z,56.69
2019-02-16T02:13:54.021Z,56.66
2019-02-16T02:16:22.632Z,56.45
2019-02-16T02:18:51.224Z,56.35
2019-02-16T02:21:19.999Z,56.20
2019-02-16T02:23:48.690Z,56.22
2019-02-16T02:26:17.546Z,56.34
2019-02-16T02:28:46.086Z,56.23
2019-02-16T02:31:14.816Z,56.32
2019-02-16T02:33:43.849Z,56.43
2019-02-16T02:36:12.497Z,56.58
2019-02-16T02:38:41.045Z,56.43
2019-02-16T02:41:09.724Z,56.48
2019-02-16T02:43:38.377Z,56.46
2019-02-16T02:46:06.987Z,56.40
2019-02-16T02:48:35.536Z,56.40
2019-02-16T02:51:04.222Z,56.30
2019-02-16T02:53:32.834Z,56.14
2019-02-16T02:56:01.452Z,56.03
2019-02-16T02:58:30.140Z,56.04
2019-02-16T03:00:58.816Z,56.13
2019-02-16T03:03:27.474Z,56.20
2019-02-16T03:05:56.065Z,56.25
2019-02-16T03:08:24.838Z,56.33
2019-02-16T03:10:53.455Z,56.51
2019-02-16T03:13:22.093Z,56.52
2019-02-16T03:15:50.698Z,56.65
2019-02-16T03:18:19.302Z,56.54
2019-02-16T03:20:48.142Z,56.71
2019-02-16T03:23:19.168Z,56.61
2019-02-16T03:25:50.683Z,56.40
2019-02-16T03:28:31.083Z,56.24
2019-02-16T03:31:22.494Z,56.12
2019-02-16T03:33:56.614Z,56.09
2019-02-16T03:36:57.273Z,56.08
2019-02-16T03:39:26.093Z,55.99
2019-02-16T03:41:54.690Z,56.02
2019-02-16T03:44:23.329Z,55.99
2019-02-16T03:46:51.981Z,56.03
2019-02-16T03:49:20.622Z,55.93
2019-02-16T03:51:49.228Z,55.75
2019-02-16T03:54:17.945Z,55.60
2019-02-16T03:56:46.677Z,55.42
2019-02-16T03:59:15.212Z,55.39
2019-02-16T04:01:43.763Z,55.33
2019-02-16T04:04:12.476Z,55.33
2019-02-16T04:06:41.090Z,55.44
2019-02-16T04:09:09.718Z,55.49
2019-02-16T04:11:38.326Z,55.50
2019-02-16T04:14:06.914Z,55.78
2019-02-16T04:16:35.530Z,55.97
2019-02-16T04:19:04.177Z,56.26
2019-02-16T04:21:32.814Z,56.74
2019-02-16T04:24:01.363Z,57.04
2019-02-16T04:26:29.994Z,57.54
2019-02-16T04:28:58.615Z,57.94
2019-02-16T04:31:27.262Z,58.34
2019-02-16T04:33:55.976Z,58.93
2019-02-16T04:36:24.575Z,59.28
2019-02-16T04:38:53.151Z,59.59
2019-02-16T04:41:21.750Z,59.96
2019-02-16T04:43:50.358Z,60.53
2019-02-16T04:46:18.964Z,60.86
2019-02-16T04:48:47.623Z,61.24
2019-02-16T04:51:16.338Z,61.76
2019-02-16T04:53:45.028Z,62.14
2019-02-16T04:56:13.677Z,62.63
2019-02-16T04:58:42.289Z,63.02
2019-02-16T05:01:10.989Z,63.31
2019-02-16T05:03:39.575Z,63.76
2019-02-16T05:06:08.184Z,64.23
2019-02-16T05:08:36.750Z,64.67
2019-02-16T05:11:05.352Z,65.11
2019-02-16T05:13:34.103Z,65.32
2019-02-16T05:16:03.022Z,65.66
2019-02-16T05:18:31.591Z,66.04
2019-02-16T05:21:00.304Z,66.21
2019-02-16T05:23:28.951Z,66.64
2019-02-16T05:25:57.630Z,66.83
2019-02-16T05:28:26.263Z,67.21
2019-02-16T05:30:54.869Z,67.39
2019-02-16T05:33:23.628Z,67.54
2019-02-16T05:35:52.377Z,67.57
2019-02-16T05:38:20.968Z,67.90
2019-02-16T05:40:49.645Z,68.02
2019-02-16T05:43:18.335Z,68.19
2019-02-16T05:45:47.013Z,68.18
2019-02-16T05:48:15.712Z,68.43
2019-02-16T05:50:44.321Z,68.77
2019-02-16T05:53:13.036Z,68.88
2019-02-16T05:55:41.655Z,68.82
2019-02-16T05:58:10.264Z,69.09
2019-02-16T06:00:38.795Z,69.19
2019-02-16T06:03:07.894Z,69.63
2019-02-16T06:05:36.591Z,69.87
2019-02-16T06:08:05.387Z,69.86
2019-02-16T06:10:34.215Z,70.08
2019-02-16T06:13:02.917Z,70.30
2019-02-16T06:15:31.550Z,70.61
2019-02-16T06:18:00.218Z,70.89
2019-02-16T06:20:28.789Z,71.04
2019-02-16T06:23:03.867Z,70.94
2019-02-16T06:25:27.689Z,71.04
2019-02-16T06:27:56.429Z,70.92
2019-02-16T06:30:24.971Z,71.16
2019-02-16T06:32:53.589Z,71.10
2019-02-16T06:35:26.557Z,71.15
2019-02-16T06:37:55.192Z,71.19
2019-02-16T06:40:23.803Z,71.26
2019-02-16T06:42:52.436Z,71.20
2019-02-16T06:45:21.043Z,71.30
2019-02-16T06:47:49.659Z,71.37
2019-02-16T06:50:18.278Z,71.48
2019-02-16T06:52:47.231Z,71.46
2019-02-16T06:55:15.942Z,71.47
2019-02-16T06:57:46.142Z,71.78
2019-02-16T07:00:16.332Z,71.75
2019-02-16T07:02:44.947Z,71.96
2019-02-16T07:05:13.681Z,71.99
2019-02-16T07:07:42.415Z,72.15
2019-02-16T07:10:11.035Z,72.26
2019-02-16T07:12:39.608Z,72.47
2019-02-16T07:15:08.392Z,72.27
2019-02-16T07:17:41.563Z,71.73
2019-02-16T07:20:10.456Z,70.84
2019-02-16T07:22:39.069Z,69.47
2019-02-16T07:25:08.616Z,68.15
2019-02-16T07:27:37.236Z,67.37
2019-02-16T07:30:08.613Z,67.00
2019-02-16T07:32:37.229Z,66.92
2019-02-16T07:35:07.228Z,66.98
2019-02-16T07:37:35.862Z,67.09
2019-02-16T07:40:06.002Z,67.17
2019-02-16T07:42:48.539Z,67.23
2019-02-16T07:45:19.545Z,67.64
2019-02-16T07:47:49.996Z,67.80
2019-02-16T07:50:23.119Z,67.82
2019-02-16T07:52:56.316Z,68.06
2019-02-16T07:55:26.496Z,68.42
2019-02-16T07:57:56.752Z,68.47
2019-02-16T08:00:26.974Z,68.40
2019-02-16T08:02:59.991Z,67.45
2019-02-16T08:05:48.535Z,65.94
2019-02-16T08:08:18.818Z,63.17
2019-02-16T08:10:49.160Z,59.72
2019-02-16T08:13:35.792Z,57.45
2019-02-16T08:16:21.143Z,55.91
2019-02-16T08:18:54.161Z,54.73
2019-02-16T08:21:30.346Z,54.14
2019-02-16T08:24:15.977Z,52.69
2019-02-16T08:27:04.389Z,51.23
2019-02-16T08:29:34.684Z,50.21
2019-02-16T08:32:08.348Z,48.47
2019-02-16T08:34:47.567Z,47.30
2019-02-16T08:37:23.808Z,46.34
2019-02-16T08:40:09.070Z,45.28
2019-02-16T08:42:56.091Z,44.18
2019-02-16T08:45:26.694Z,43.71
2019-02-16T08:47:59.956Z,43.04
2019-02-16T08:50:35.997Z,42.43
2019-02-16T08:53:06.279Z,41.75
2019-02-16T08:55:52.855Z,41.10
2019-02-16T08:58:39.246Z,40.51
2019-02-16T09:01:20.133Z,40.14
2019-02-16T09:03:53.280Z,39.84
2019-02-16T09:06:23.678Z,39.68
2019-02-16T09:08:54.112Z,39.30
2019-02-16T09:11:33.257Z,38.60
2019-02-16T09:14:06.549Z,38.80
2019-02-16T09:16:39.868Z,38.15
2019-02-16T09:19:26.594Z,37.61
2019-02-16T09:22:02.542Z,37.60
2019-02-16T09:24:32.773Z,37.33
2019-02-16T09:27:10.623Z,37.04
2019-02-16T09:29:44.777Z,36.75
2019-02-16T09:32:15.310Z,36.24
2019-02-16T09:34:51.745Z,36.61
2019-02-16T09:37:22.233Z,36.13
2019-02-16T09:39:52.493Z,36.45
2019-02-16T09:42:39.205Z,35.68
2019-02-16T09:45:26.427Z,35.31
2019-02-16T09:47:56.678Z,35.07
2019-02-16T09:50:28.230Z,35.26
2019-02-16T09:53:07.640Z,35.45
2019-02-16T09:55:54.418Z,35.41
2019-02-16T09:58:27.395Z,35.28
2019-02-16T10:00:58.164Z,35.35
2019-02-16T10:03:47.140Z,35.19
2019-02-16T10:06:20.455Z,35.48
2019-02-16T10:08:50.952Z,35.57
2019-02-16T10:11:39.536Z,35.75
2019-02-16T10:14:12.493Z,35.82
2019-02-16T10:16:42.796Z,35.97
2019-02-16T10:19:25.038Z,35.69
2019-02-16T10:21:58.117Z,35.78
2019-02-16T10:24:34.173Z,35.75
2019-02-16T10:27:07.052Z,35.76
2019-02-16T10:29:53.516Z,35.59
2019-02-16T10:32:23.764Z,35.98
2019-02-16T10:34:56.547Z,35.66
2019-02-16T10:37:26.805Z,36.05
2019-02-16T10:40:02.967Z,35.65
2019-02-16T10:42:35.931Z,35.84
2019-02-16T10:45:09.726Z,35.49
2019-02-16T10:47:40.116Z,36.00
2019-02-16T10:50:13.400Z,35.93
2019-02-16T10:52:52.467Z,36.11
2019-02-16T10:55:22.770Z,35.81
2019-02-16T10:57:53.027Z,35.60
2019-02-16T11:00:35.647Z,35.11
2019-02-16T11:03:11.851Z,35.02
2019-02-16T11:05:48.301Z,35.23
2019-02-16T11:08:19.062Z,35.27
2019-02-16T11:10:55.293Z,35.17
2019-02-16T11:13:31.536Z,36.20
2019-02-16T11:16:04.781Z,36.18
2019-02-16T11:18:47.358Z,35.72
2019-02-16T11:21:23.544Z,35.44
2019-02-16T11:24:06.098Z,35.36
2019-02-16T11:26:52.820Z,36.09
2019-02-16T11:29:23.116Z,35.83
2019-02-16T11:31:53.545Z,35.52
2019-02-16T11:34:26.616Z,35.49
2019-02-16T11:37:03.466Z,35.79
2019-02-16T11:39:39.685Z,35.66
2019-02-16T11:42:28.557Z,35.78
2019-02-16T11:44:58.813Z,35.43
2019-02-16T11:47:32.463Z,34.66
2019-02-16T11:50:19.078Z,34.68
2019-02-16T11:53:06.061Z,34.65
2019-02-16T11:55:39.388Z,35.38
2019-02-16T11:58:09.638Z,35.12
2019-02-16T12:00:45.871Z,35.28
2019-02-16T12:03:16.605Z,35.02
2019-02-16T12:05:46.896Z,34.12
2019-02-16T12:08:17.183Z,33.84
2019-02-16T12:10:56.798Z,33.73
2019-02-16T12:13:32.882Z,33.24
2019-02-16T12:16:15.106Z,33.88
2019-02-16T12:19:01.756Z,33.29
2019-02-16T12:21:38.710Z,33.18
2019-02-16T12:24:08.902Z,33.44
2019-02-16T12:26:39.278Z,33.88
2019-02-16T12:29:09.482Z,33.55
2019-02-16T12:31:48.646Z,33.48
2019-02-16T12:34:30.734Z,33.54
2019-02-16T12:37:06.603Z,32.61
2019-02-16T12:39:55.467Z,33.06
2019-02-16T12:42:28.321Z,32.67
2019-02-16T12:45:07.738Z,32.90
2019-02-16T12:47:50.146Z,32.79
2019-02-16T12:50:20.402Z,33.78
2019-02-16T12:52:53.457Z,32.58
2019-02-16T12:55:35.726Z,33.32
2019-02-16T12:58:06.077Z,32.79
2019-02-16T13:00:41.908Z,32.65
2019-02-16T13:03:12.540Z,32.46
2019-02-16T13:05:59.150Z,33.03
2019-02-16T13:08:32.296Z,32.73
2019-02-16T13:11:05.423Z,32.62
2019-02-16T13:13:35.677Z,32.73
2019-02-16T13:16:08.766Z,33.33
2019-02-16T13:18:44.764Z,33.51
2019-02-16T13:21:15.014Z,32.18
2019-02-16T13:23:45.272Z,31.64
2019-02-16T13:26:18.561Z,32.48
2019-02-16T13:28:51.820Z,32.79
2019-02-16T13:31:28.557Z,32.90
2019-02-16T13:34:14.896Z,32.55
2019-02-16T13:36:57.543Z,32.24
2019-02-16T13:39:27.761Z,32.19
2019-02-16T13:41:58.054Z,32.98
2019-02-16T13:44:37.598Z,33.35
2019-02-16T13:47:07.882Z,32.99
2019-02-16T13:49:38.778Z,33.16
2019-02-16T13:52:24.498Z,33.51
2019-02-16T13:55:14.185Z,34.03
2019-02-16T13:57:50.449Z,34.15
2019-02-16T14:00:35.747Z,34.25
2019-02-16T14:03:06.045Z,34.85
2019-02-16T14:05:45.652Z,34.91
2019-02-16T14:08:21.918Z,35.15
2019-02-16T14:10:52.179Z,35.64
2019-02-16T14:13:31.368Z,36.10
2019-02-16T14:16:19.948Z,36.05
2019-02-16T14:18:48.530Z,36.42
2019-02-16T14:21:17.166Z,36.41
2019-02-16T14:23:45.843Z,36.62
2019-02-16T14:26:14.462Z,36.60
2019-02-16T14:28:43.036Z,36.86
2019-02-16T14:31:12.968Z,37.24
2019-02-16T14:33:41.578Z,37.39
2019-02-16T14:36:10.300Z,37.53
2019-02-16T14:38:40.723Z,37.78
2019-02-16T14:41:09.420Z,38.04
2019-02-16T14:43:38.095Z,38.20
2019-02-16T14:46:06.987Z,38.44
2019-02-16T14:48:35.605Z,38.49
2019-02-16T14:51:04.192Z,38.70
2019-02-16T14:53:32.777Z,38.62
2019-02-16T14:56:01.396Z,38.69
2019-02-16T14:58:30.112Z,39.08
2019-02-16T15:00:59.109Z,39.16
2019-02-16T15:03:27.760Z,39.08
2019-02-16T15:05:56.454Z,39.27
2019-02-16T15:08:25.398Z,39.53
2019-02-16T15:10:54.254Z,39.99
2019-02-16T15:13:22.827Z,40.00
2019-02-16T15:15:51.453Z,40.49
2019-02-16T15:18:19.942Z,40.75
2019-02-16T15:20:48.621Z,41.34
2019-02-16T15:23:17.402Z,41.27
2019-02-16T15:25:46.026Z,41.57
2019-02-16T15:28:14.745Z,41.52
2019-02-16T15:30:43.329Z,41.39
2019-02-16T15:33:11.872Z,41.47
2019-02-16T15:35:40.867Z,41.74
2019-02-16T15:38:09.527Z,41.80
2019-02-16T15:40:38.075Z,42.12
2019-02-16T15:43:06.689Z,42.00
2019-02-16T15:45:35.377Z,42.32
2019-02-16T15:48:04.816Z,42.52
2019-02-16T15:50:33.501Z,42.66
2019-02-16T15:53:02.222Z,42.93
2019-02-16T15:55:30.872Z,42.98
2019-02-16T15:57:59.541Z,43.28
2019-02-16T16:00:29.068Z,43.57
2019-02-16T16:02:59.624Z,43.59
2019-02-16T16:05:28.251Z,44.04
2019-02-16T16:08:10.850Z,44.13
2019-02-16T16:10:41.108Z,44.45
2019-02-16T16:13:14.573Z,44.69
2019-02-16T16:15:44.975Z,44.88
2019-02-16T16:18:33.416Z,45.27
2019-02-16T16:21:15.649Z,45.44
2019-02-16T16:24:02.137Z,45.76
2019-02-16T16:26:48.958Z,46.19
2019-02-16T16:29:28.136Z,46.56
2019-02-16T16:32:04.261Z,46.84
2019-02-16T16:34:43.737Z,47.28
2019-02-16T16:37:30.099Z,47.95
2019-02-16T16:40:00.389Z,48.01
2019-02-16T16:42:42.541Z,48.33
2019-02-16T16:45:24.126Z,48.77
2019-02-16T16:48:06.337Z,49.46
2019-02-16T16:50:36.959Z,49.82
2019-02-16T16:53:07.228Z,50.29
2019-02-16T16:55:43.291Z,50.83
2019-02-16T16:58:29.511Z,51.34
2019-02-16T17:01:17.697Z,51.90
2019-02-16T17:03:56.994Z,52.47
2019-02-16T17:06:35.963Z,52.99
2019-02-16T17:09:08.054Z,53.50
2019-02-16T17:11:44.250Z,53.88
2019-02-16T17:14:17.033Z,54.34
2019-02-16T17:16:53.363Z,54.58
2019-02-16T17:19:29.632Z,54.88
2019-02-16T17:22:12.479Z,55.38
2019-02-16T17:24:42.694Z,55.79
2019-02-16T17:27:15.995Z,56.14
2019-02-16T17:29:46.268Z,56.36
2019-02-16T17:32:16.617Z,56.71
2019-02-16T17:34:49.731Z,56.87
2019-02-16T17:37:22.717Z,57.11
2019-02-16T17:39:53.211Z,57.52
2019-02-16T17:42:39.482Z,57.82
2019-02-16T17:45:17.230Z,58.27
2019-02-16T17:47:50.564Z,58.51
2019-02-16T17:50:39.229Z,58.78
2019-02-16T17:53:27.476Z,59.09
2019-02-16T17:56:03.593Z,59.49
2019-02-16T17:58:36.310Z,59.85
2019-02-16T18:01:06.627Z,60.11
2019-02-16T18:03:45.734Z,60.54
2019-02-16T18:06:21.861Z,60.87
2019-02-16T18:08:58.250Z,61.68
2019-02-16T18:11:28.851Z,61.55
2019-02-16T18:14:07.834Z,62.17
2019-02-16T18:16:56.438Z,62.60
2019-02-16T18:19:26.688Z,62.86
2019-02-16T18:21:57.283Z,62.91
2019-02-16T18:24:44.150Z,63.41
2019-02-16T18:27:14.388Z,63.54
2019-02-16T18:29:59.693Z,63.70
2019-02-16T18:32:31.558Z,64.21
2019-02-16T18:35:08.404Z,64.39
2019-02-16T18:37:51.045Z,64.88
2019-02-16T18:40:30.463Z,64.99
2019-02-16T18:43:00.841Z,65.41
2019-02-16T18:45:40.118Z,65.46
2019-02-16T18:48:13.055Z,66.04
2019-02-16T18:50:43.337Z,66.02
2019-02-16T18:53:22.341Z,66.41
2019-02-16T18:55:52.580Z,66.86
2019-02-16T18:58:25.687Z,67.11
2019-02-16T19:00:56.140Z,67.42
2019-02-16T19:03:35.214Z,67.26
2019-02-16T19:06:05.526Z,67.73
2019-02-16T19:08:35.966Z,68.12
2019-02-16T19:11:22.534Z,68.27
2019-02-16T19:13:58.433Z,68.31
2019-02-16T19:16:37.592Z,68.51
2019-02-16T19:19:13.816Z,68.79
2019-02-16T19:21:47.130Z,69.07
2019-02-16T19:24:17.780Z,69.31
2019-02-16T19:26:48.072Z,69.34
2019-02-16T19:29:27.701Z,69.73
2019-02-16T19:31:57.996Z,69.83
2019-02-16T19:34:28.461Z,69.95
2019-02-16T19:37:07.829Z,69.95
2019-02-16T19:39:38.081Z,70.17
2019-02-16T19:42:08.377Z,70.38
2019-02-16T19:44:38.632Z,70.44
2019-02-16T19:47:11.839Z,70.90
2019-02-16T19:49:57.173Z,70.89
2019-02-16T19:52:27.569Z,71.02
2019-02-16T19:54:57.801Z,71.17
2019-02-16T19:57:31.005Z,71.45
2019-02-16T20:00:17.957Z,71.46
2019-02-16T20:03:03.429Z,71.46
2019-02-16T20:05:33.685Z,71.40
2019-02-16T20:08:09.860Z,71.70
2019-02-16T20:10:56.491Z,72.22
2019-02-16T20:13:29.743Z,72.05
2019-02-16T20:16:02.970Z,72.09
2019-02-16T20:18:51.700Z,72.32
2019-02-16T20:21:40.222Z,72.45
2019-02-16T20:24:13.239Z,72.74
2019-02-16T20:26:43.851Z,72.77
2019-02-16T20:29:14.141Z,72.99
2019-02-16T20:32:00.833Z,72.84
2019-02-16T20:34:31.111Z,73.18
2019-02-16T20:37:07.391Z,73.55
2019-02-16T20:39:43.819Z,73.55
2019-02-16T20:42:14.105Z,73.79
2019-02-16T20:44:47.062Z,74.00
2019-02-16T20:47:26.527Z,74.37
2019-02-16T20:49:59.586Z,74.48
2019-02-16T20:52:32.908Z,74.46
2019-02-16T20:55:03.094Z,74.77
2019-02-16T20:57:33.352Z,75.20
2019-02-16T21:00:06.247Z,75.30
2019-02-16T21:02:36.492Z,75.32
2019-02-16T21:05:25.390Z,75.04
2019-02-16T21:07:55.744Z,75.27
2019-02-16T21:10:26.021Z,75.19
2019-02-16T21:12:56.270Z,75.53
2019-02-16T21:15:26.576Z,75.56
2019-02-16T21:17:57.544Z,75.84
2019-02-16T21:20:44.233Z,75.85
2019-02-16T21:23:30.937Z,75.90
2019-02-16T21:26:04.114Z,76.15
2019-02-16T21:28:37.248Z,76.07
2019-02-16T21:31:10.262Z,75.98
2019-02-16T21:33:46.295Z,76.29
2019-02-16T21:36:16.580Z,76.31
2019-02-16T21:39:03.697Z,76.72
2019-02-16T21:41:49.248Z,76.76
2019-02-16T21:44:22.485Z,76.63
2019-02-16T21:47:02.833Z,76.94
2019-02-16T21:49:33.070Z,77.02
2019-02-16T21:52:03.391Z,76.86
2019-02-16T21:54:42.546Z,77.37
2019-02-16T21:57:24.787Z,77.24
2019-02-16T22:00:13.026Z,77.41
2019-02-16T22:02:49.156Z,77.56
2019-02-16T22:05:19.552Z,77.73
2019-02-16T22:07:59.256Z,77.76
2019-02-16T22:10:29.752Z,77.71
2019-02-16T22:13:02.568Z,77.86
2019-02-16T22:15:31.424Z,78.09
2019-02-16T22:18:00.044Z,78.27
2019-02-16T22:20:28.694Z,78.34
2019-02-16T22:22:57.346Z,78.40
2019-02-16T22:25:26.041Z,78.48
2019-02-16T22:27:54.682Z,78.79
2019-02-16T22:30:23.414Z,78.71
2019-02-16T22:32:52.084Z,78.77
2019-02-16T22:35:20.768Z,78.88
2019-02-16T22:37:49.494Z,78.92
2019-02-16T22:40:18.280Z,78.95
2019-02-16T22:42:46.930Z,78.76
2019-02-16T22:45:15.579Z,78.90
2019-02-16T22:47:44.196Z,79.27
2019-02-16T22:50:12.883Z,79.61
2019-02-16T22:52:42.118Z,79.60
2019-02-16T22:55:10.846Z,79.60
2019-02-16T22:57:39.497Z,79.75
2019-02-16T23:00:18.764Z,79.75
2019-02-16T23:02:47.680Z,80.07
2019-02-16T23:05:16.386Z,79.87
2019-02-16T23:07:44.993Z,80.12
2019-02-16T23:10:13.942Z,80.48
2019-02-16T23:12:42.559Z,80.22
2019-02-16T23:15:12.333Z,80.38
2019-02-16T23:17:41.061Z,80.25
2019-02-16T23:20:11.565Z,80.54
2019-02-16T23:22:40.815Z,80.44
2019-02-16T23:25:09.635Z,80.38
2019-02-16T23:27:38.384Z,80.44
2019-02-16T23:30:11.753Z,80.58
2019-02-16T23:32:40.610Z,80.68
2019-02-16T23:35:09.744Z,80.51
2019-02-16T23:37:38.379Z,80.70
2019-02-16T23:40:08.500Z,80.84
2019-02-16T23:42:37.294Z,80.90
2019-02-16T23:45:08.611Z,80.99
2019-02-16T23:47:37.237Z,81.12
2019-02-16T23:50:08.653Z,81.22
2019-02-16T23:52:37.300Z,81.35
2019-02-16T23:55:08.805Z,81.18
2019-02-16T23:57:37.475Z,81.44
